createdAt,value
2023-03-10T00:01:50.280Z,1.15
2023-03-10T00:04:19.281Z,0.55
2023-03-10T00:06:50.582Z,0.43
2023-03-10T00:09:19.447Z,0.73
2023-03-10T00:11:47.743Z,0.70
2023-03-10T00:14:18.798Z,0.68
2023-03-10T00:16:47.622Z,0.80
2023-03-10T00:19:17.997Z,0.85
2023-03-10T00:21:50.889Z,0.80
2023-03-10T00:24:19.157Z,0.80
2023-03-10T00:26:47.562Z,0.85
2023-03-10T00:29:18.851Z,0.50
2023-03-10T00:31:47.171Z,0.57
2023-03-10T00:34:18.400Z,0.47
2023-03-10T00:36:50.076Z,0.40
2023-03-10T00:39:19.125Z,0.43
2023-03-10T00:41:48.773Z,0.55
2023-03-10T00:44:18.142Z,1.15
2023-03-10T00:46:47.227Z,0.60
2023-03-10T00:49:17.894Z,0.63
2023-03-10T00:51:46.745Z,0.80
2023-03-10T00:54:15.872Z,0.60
2023-03-10T00:56:44.188Z,0.52
2023-03-10T00:59:16.098Z,0.68
2023-03-10T01:01:45.928Z,0.40
2023-03-10T01:04:19.074Z,0.40
2023-03-10T01:06:48.751Z,0.88
2023-03-10T01:09:18.074Z,0.47
2023-03-10T01:11:46.431Z,0.65
2023-03-10T01:14:18.974Z,0.40
2023-03-10T01:16:55.011Z,0.52
2023-03-10T01:19:23.845Z,0.60
2023-03-10T01:21:52.197Z,0.50
2023-03-10T01:24:21.324Z,0.60
2023-03-10T01:26:51.504Z,0.30
2023-03-10T01:29:20.378Z,0.60
2023-03-10T01:31:49.801Z,0.40
2023-03-10T01:34:18.416Z,0.43
2023-03-10T01:36:47.918Z,0.45
2023-03-10T01:39:16.150Z,0.40
2023-03-10T01:41:44.798Z,0.30
2023-03-10T01:44:16.292Z,0.50
2023-03-10T01:46:48.088Z,0.30
2023-03-10T01:49:34.148Z,0.57
2023-03-10T01:52:08.870Z,0.70
2023-03-10T01:54:43.849Z,0.40
2023-03-10T01:57:15.064Z,0.57
2023-03-10T01:59:43.871Z,0.40
2023-03-10T02:02:17.580Z,0.60
2023-03-10T02:04:50.264Z,0.50
2023-03-10T02:07:21.862Z,0.85
2023-03-10T02:09:53.850Z,0.47
2023-03-10T02:12:22.466Z,0.45
2023-03-10T02:14:54.630Z,0.63
2023-03-10T02:17:24.602Z,0.30
2023-03-10T02:20:20.671Z,0.52
2023-03-10T02:22:51.400Z,0.50
2023-03-10T02:25:29.807Z,0.32
2023-03-10T02:28:02.264Z,0.60
2023-03-10T02:30:34.266Z,0.50
2023-03-10T02:33:10.798Z,0.63
2023-03-10T02:35:39.934Z,0.50
2023-03-10T02:38:08.624Z,0.40
2023-03-10T02:40:40.340Z,0.50
2023-03-10T02:43:19.078Z,0.63
2023-03-10T02:45:50.488Z,0.73
2023-03-10T02:48:28.033Z,0.70
2023-03-10T02:50:59.226Z,0.60
2023-03-10T02:53:29.089Z,0.50
2023-03-10T02:55:58.252Z,0.50
2023-03-10T02:58:29.444Z,0.40
2023-03-10T03:00:59.464Z,0.60
2023-03-10T03:03:29.780Z,0.70
2023-03-10T03:05:58.135Z,0.73
2023-03-10T03:08:30.165Z,0.70
2023-03-10T03:10:58.397Z,0.90
2023-03-10T03:13:28.567Z,0.85
2023-03-10T03:15:57.574Z,0.93
2023-03-10T03:18:26.786Z,1.30
2023-03-10T03:20:57.226Z,0.70
2023-03-10T03:23:32.782Z,0.70
2023-03-10T03:26:01.078Z,0.88
2023-03-10T03:28:30.613Z,0.80
2023-03-10T03:31:01.543Z,1.23
2023-03-10T03:33:30.297Z,1.27
2023-03-10T03:35:59.267Z,0.90
2023-03-10T03:38:27.829Z,1.10
2023-03-10T03:40:58.862Z,1.00
2023-03-10T03:43:30.590Z,1.05
2023-03-10T03:46:00.559Z,0.90
2023-03-10T03:48:30.002Z,0.90
2023-03-10T03:50:59.162Z,1.10
2023-03-10T03:53:27.792Z,1.15
2023-03-10T03:55:57.776Z,1.10
2023-03-10T03:58:26.718Z,1.00
2023-03-10T04:00:58.455Z,1.20
2023-03-10T04:03:28.547Z,1.00
2023-03-10T04:05:58.174Z,1.27
2023-03-10T04:08:26.986Z,1.00
2023-03-10T04:10:57.107Z,0.98
2023-03-10T04:13:25.609Z,1.27
2023-03-10T04:15:57.877Z,1.42
2023-03-10T04:18:30.501Z,1.02
2023-03-10T04:20:58.798Z,1.10
2023-03-10T04:23:27.412Z,1.08
2023-03-10T04:25:58.645Z,1.02
2023-03-10T04:28:29.242Z,0.80
2023-03-10T04:31:00.399Z,1.30
2023-03-10T04:33:32.551Z,1.08
2023-03-10T04:36:04.979Z,1.00
2023-03-10T04:38:34.812Z,0.95
2023-03-10T04:41:07.637Z,0.90
2023-03-10T04:43:39.562Z,1.40
2023-03-10T04:48:46.415Z,1.38
2023-03-10T04:51:15.273Z,1.05
2023-03-10T04:53:43.665Z,0.88
2023-03-10T04:56:15.720Z,1.00
2023-03-10T04:58:46.385Z,1.00
2023-03-10T05:01:16.148Z,1.20
2023-03-10T05:03:46.396Z,0.93
2023-03-10T05:06:16.467Z,1.40
2023-03-10T05:08:49.468Z,1.08
2023-03-10T05:11:19.069Z,1.13
2023-03-10T05:13:50.573Z,1.15
2023-03-10T05:16:24.831Z,0.80
2023-03-10T05:18:57.470Z,1.33
2023-03-10T05:21:26.620Z,0.82
2023-03-10T05:23:56.447Z,0.82
2023-03-10T05:26:24.959Z,1.10
2023-03-10T05:28:53.486Z,0.93
2023-03-10T05:31:27.028Z,1.27
2023-03-10T05:33:57.109Z,1.00
2023-03-10T05:36:26.875Z,1.00
2023-03-10T05:38:55.193Z,1.08
2023-03-10T05:41:23.461Z,1.20
2023-03-10T05:43:53.852Z,1.08
2023-03-10T05:46:22.577Z,1.10
2023-03-10T05:48:50.977Z,1.35
2023-03-10T05:51:22.285Z,1.40
2023-03-10T05:53:51.912Z,0.88
2023-03-10T05:56:23.714Z,0.80
2023-03-10T05:58:54.615Z,0.80
2023-03-10T06:01:24.569Z,1.13
2023-03-10T06:03:53.320Z,1.95
2023-03-10T06:06:25.150Z,1.10
2023-03-10T06:08:53.752Z,0.88
2023-03-10T06:11:27.064Z,1.35
2023-03-10T06:13:58.385Z,0.98
2023-03-10T06:16:30.216Z,0.95
2023-03-10T06:18:59.141Z,1.00
2023-03-10T06:21:30.277Z,0.93
2023-03-10T06:24:01.600Z,1.00
2023-03-10T06:26:30.297Z,1.17
2023-03-10T06:28:58.619Z,1.48
2023-03-10T06:31:27.281Z,1.08
2023-03-10T06:33:55.968Z,2.38
2023-03-10T06:36:27.297Z,1.05
2023-03-10T06:38:58.780Z,0.60
2023-03-10T06:41:28.061Z,1.08
2023-03-10T06:43:59.093Z,1.33
2023-03-10T06:46:29.229Z,1.17
2023-03-10T06:48:58.076Z,1.05
2023-03-10T06:51:26.743Z,1.30
2023-03-10T06:53:57.538Z,1.13
2023-03-10T06:56:30.581Z,1.52
2023-03-10T07:01:28.102Z,1.30
2023-03-10T07:04:00.035Z,0.98
2023-03-10T07:06:30.297Z,1.40
2023-03-10T07:08:58.680Z,0.80
2023-03-10T07:11:28.274Z,1.13
2023-03-10T07:13:57.756Z,1.00
2023-03-10T07:16:26.278Z,1.25
2023-03-10T07:18:54.926Z,1.30
2023-03-10T07:21:23.688Z,1.10
2023-03-10T07:23:52.232Z,1.20
2023-03-10T07:26:21.053Z,0.90
2023-03-10T07:28:51.657Z,0.93
2023-03-10T07:31:20.416Z,1.02
2023-03-10T07:33:49.477Z,1.10
2023-03-10T07:36:23.877Z,0.88
2023-03-10T07:38:52.862Z,0.73
2023-03-10T07:41:29.648Z,0.90
2023-03-10T07:44:03.887Z,0.80
2023-03-10T07:46:32.178Z,0.90
2023-03-10T07:49:04.424Z,1.02
2023-03-10T07:51:42.793Z,0.90
2023-03-10T07:54:13.761Z,0.88
2023-03-10T07:56:42.177Z,1.00
2023-03-10T07:59:16.188Z,0.55
2023-03-10T08:01:48.700Z,0.65
2023-03-10T08:04:17.943Z,1.10
2023-03-10T08:06:49.578Z,1.38
2023-03-10T08:09:17.949Z,1.67
2023-03-10T08:11:46.707Z,1.40
2023-03-10T08:14:21.023Z,1.00
2023-03-10T08:16:49.417Z,0.70
2023-03-10T08:19:19.350Z,0.93
2023-03-10T08:21:47.679Z,0.93
2023-03-10T08:24:16.529Z,0.80
2023-03-10T08:26:46.475Z,0.70
2023-03-10T08:29:19.063Z,0.73
2023-03-10T08:31:49.742Z,0.82
2023-03-10T08:34:18.190Z,1.40
2023-03-10T08:36:46.590Z,0.80
2023-03-10T08:39:17.462Z,0.70
2023-03-10T08:41:50.201Z,0.80
2023-03-10T08:44:20.546Z,0.77
2023-03-10T08:46:50.890Z,1.13
2023-03-10T08:49:23.511Z,0.85
2023-03-10T08:51:51.928Z,1.17
2023-03-10T08:54:21.769Z,0.80
2023-03-10T08:56:50.841Z,0.70
2023-03-10T08:59:21.156Z,0.50
2023-03-10T09:01:50.139Z,0.70
2023-03-10T09:04:18.663Z,0.80
2023-03-10T09:06:46.926Z,0.95
2023-03-10T09:09:16.117Z,1.20
2023-03-10T09:11:44.966Z,0.57
2023-03-10T09:14:17.058Z,0.73
2023-03-10T09:16:57.246Z,0.70
2023-03-10T09:19:25.901Z,0.90
2023-03-10T09:21:55.634Z,0.50
2023-03-10T09:24:23.930Z,0.70
2023-03-10T09:27:18.385Z,0.75
2023-03-10T09:29:50.928Z,0.73
2023-03-10T09:32:28.047Z,0.77
2023-03-10T09:34:57.604Z,0.60
2023-03-10T09:37:29.708Z,0.68
2023-03-10T09:39:58.880Z,0.90
2023-03-10T09:42:38.793Z,0.90
2023-03-10T09:45:28.369Z,0.75
2023-03-10T09:48:13.208Z,0.70
2023-03-10T09:50:47.821Z,1.13
2023-03-10T09:53:40.569Z,1.00
2023-03-10T09:56:13.652Z,1.38
2023-03-10T10:01:27.131Z,0.40
2023-03-10T10:04:04.175Z,0.50
2023-03-10T10:06:38.423Z,0.65
2023-03-10T10:09:14.065Z,0.57
2023-03-10T10:11:43.098Z,0.80
2023-03-10T10:14:28.367Z,1.13
2023-03-10T10:17:08.124Z,0.90
2023-03-10T10:19:41.624Z,0.80
2023-03-10T10:22:16.890Z,1.02
2023-03-10T10:25:02.133Z,0.77
2023-03-10T10:27:32.933Z,0.90
2023-03-10T10:30:02.058Z,1.17
2023-03-10T10:32:35.264Z,1.13
2023-03-10T10:35:17.061Z,0.98
2023-03-10T10:37:47.309Z,1.13
2023-03-10T10:40:33.342Z,1.10
2023-03-10T10:43:05.839Z,1.55
2023-03-10T10:45:36.641Z,1.27
2023-03-10T10:48:06.755Z,2.35
2023-03-10T10:50:37.908Z,1.85
2023-03-10T10:53:24.390Z,0.98
2023-03-10T10:56:02.719Z,0.85
2023-03-10T10:58:34.164Z,0.80
2023-03-10T11:01:05.700Z,0.80
2023-03-10T11:03:36.884Z,0.73
2023-03-10T11:06:19.641Z,0.80
2023-03-10T11:08:51.393Z,1.05
2023-03-10T11:11:37.585Z,0.35
2023-03-10T11:14:25.790Z,0.65
2023-03-10T11:17:01.710Z,0.50
2023-03-10T11:19:38.156Z,0.50
2023-03-10T11:22:23.730Z,0.80
2023-03-10T11:24:59.502Z,0.90
2023-03-10T11:27:41.218Z,0.45
2023-03-10T11:30:16.140Z,0.50
2023-03-10T11:33:14.542Z,0.65
2023-03-10T11:35:46.772Z,0.57
2023-03-10T11:38:29.001Z,0.80
2023-03-10T11:41:00.019Z,1.08
2023-03-10T11:43:38.506Z,0.60
2023-03-10T11:46:16.456Z,0.63
2023-03-10T11:49:04.190Z,0.90
2023-03-10T11:51:39.015Z,0.47
2023-03-10T11:54:15.587Z,0.55
2023-03-10T11:56:45.856Z,0.40
2023-03-10T11:59:18.247Z,0.63
2023-03-10T12:01:51.018Z,0.50
2023-03-10T12:04:24.512Z,0.70
2023-03-10T12:07:00.444Z,0.50
2023-03-10T12:09:40.706Z,0.47
2023-03-10T12:12:15.596Z,0.75
2023-03-10T12:14:44.980Z,0.55
2023-03-10T12:17:14.498Z,0.38
2023-03-10T12:20:24.565Z,0.40
2023-03-10T12:22:53.368Z,0.32
2023-03-10T12:25:45.628Z,0.30
2023-03-10T12:28:22.434Z,0.47
2023-03-10T12:30:53.326Z,0.40
2023-03-10T12:33:53.379Z,0.38
2023-03-10T12:36:36.769Z,0.40
2023-03-10T12:39:26.668Z,0.70
2023-03-10T12:42:01.830Z,0.43
2023-03-10T12:44:44.953Z,0.52
2023-03-10T12:47:32.217Z,0.40
2023-03-10T12:50:06.211Z,0.40
2023-03-10T12:52:49.122Z,0.30
2023-03-10T12:55:23.307Z,0.65
2023-03-10T12:58:14.835Z,0.30
2023-03-10T13:00:50.530Z,0.20
2023-03-10T13:03:30.950Z,0.25
2023-03-10T13:06:07.340Z,0.28
2023-03-10T13:08:44.936Z,0.40
2023-03-10T13:11:31.357Z,0.40
2023-03-10T13:14:03.333Z,0.40
2023-03-10T13:16:36.241Z,0.20
2023-03-10T13:19:05.648Z,0.10
2023-03-10T13:21:35.376Z,0.15
2023-03-10T13:24:23.349Z,0.20
2023-03-10T13:27:05.820Z,0.30
2023-03-10T13:29:37.028Z,0.37
2023-03-10T13:32:05.703Z,0.13
2023-03-10T13:34:37.296Z,0.20
2023-03-10T13:37:07.576Z,0.15
2023-03-10T13:39:38.371Z,0.25
2023-03-10T13:42:21.383Z,0.10
2023-03-10T13:44:54.802Z,0.25
2023-03-10T13:47:25.296Z,0.40
2023-03-10T13:50:02.721Z,0.60
2023-03-10T13:52:32.668Z,1.17
2023-03-10T13:55:12.441Z,0.60
2023-03-10T13:57:41.510Z,2.63
2023-03-10T14:00:18.069Z,0.63
2023-03-10T14:02:50.092Z,0.30
2023-03-10T14:05:43.600Z,0.60
2023-03-10T14:08:41.975Z,0.20
2023-03-10T14:11:25.277Z,0.28
2023-03-10T14:13:54.050Z,0.45
2023-03-10T14:16:45.876Z,0.22
2023-03-10T14:19:14.826Z,0.40
2023-03-10T14:21:58.536Z,0.30
2023-03-10T14:24:29.489Z,0.52
2023-03-10T14:27:01.739Z,1.92
2023-03-10T14:29:32.518Z,0.70
2023-03-10T14:32:04.753Z,4.38
2023-03-10T14:34:33.124Z,6.27
2023-03-10T14:37:01.538Z,4.40
2023-03-10T14:39:30.329Z,2.67
2023-03-10T14:42:01.470Z,1.25
2023-03-10T14:44:29.948Z,1.30
2023-03-10T14:46:58.533Z,3.58
2023-03-10T14:49:30.877Z,1.27
2023-03-10T14:51:59.255Z,0.80
2023-03-10T14:54:32.562Z,4.72
2023-03-10T14:57:00.937Z,0.50
2023-03-10T14:59:31.287Z,0.40
2023-03-10T15:02:04.238Z,0.43
2023-03-10T15:04:35.464Z,0.28
2023-03-10T15:07:04.801Z,0.30
2023-03-10T15:09:35.685Z,0.30
2023-03-10T15:12:04.093Z,0.60
2023-03-10T15:14:32.403Z,0.40
2023-03-10T15:17:02.688Z,0.38
2023-03-10T15:19:34.140Z,0.40
2023-03-10T15:22:02.372Z,0.30
2023-03-10T15:24:31.843Z,0.20
2023-03-10T15:27:03.015Z,0.90
2023-03-10T15:29:32.483Z,0.50
2023-03-10T15:32:04.365Z,0.82
2023-03-10T15:34:34.861Z,0.90
2023-03-10T15:37:03.466Z,0.50
2023-03-10T15:39:34.721Z,0.52
2023-03-10T15:44:33.714Z,0.40
2023-03-10T15:47:02.348Z,0.80
2023-03-10T15:49:31.080Z,1.08
2023-03-10T15:52:02.277Z,0.80
2023-03-10T15:54:30.943Z,1.00
2023-03-10T15:56:59.841Z,1.00
2023-03-10T15:59:28.700Z,1.25
2023-03-10T16:01:57.909Z,1.20
2023-03-10T16:04:29.436Z,1.38
2023-03-10T16:06:57.933Z,0.98
2023-03-10T16:09:27.482Z,1.27
2023-03-10T16:11:56.775Z,3.05
2023-03-10T16:14:28.590Z,2.92
2023-03-10T16:16:58.577Z,1.20
2023-03-10T16:19:27.156Z,1.13
2023-03-10T16:21:56.035Z,1.33
2023-03-10T16:24:29.276Z,1.10
2023-03-10T16:26:59.565Z,1.00
2023-03-10T16:29:30.458Z,2.80
2023-03-10T16:31:59.549Z,1.60
2023-03-10T16:34:28.461Z,1.30
2023-03-10T16:36:57.331Z,1.13
2023-03-10T16:39:27.290Z,0.95
2023-03-10T16:41:55.628Z,1.20
2023-03-10T16:44:25.578Z,1.25
2023-03-10T16:46:54.264Z,1.10
2023-03-10T16:49:23.226Z,1.17
2023-03-10T16:51:51.505Z,1.80
2023-03-10T16:54:21.885Z,1.27
2023-03-10T16:56:51.753Z,1.05
2023-03-10T16:59:21.948Z,1.25
2023-03-10T17:01:52.829Z,1.13
2023-03-10T17:04:21.267Z,1.23
2023-03-10T17:06:50.678Z,0.95
2023-03-10T17:09:20.404Z,1.60
2023-03-10T17:11:55.283Z,1.00
2023-03-10T17:14:25.408Z,1.60
2023-03-10T17:16:55.865Z,1.02
2023-03-10T17:19:29.800Z,1.40
2023-03-10T17:21:59.554Z,1.45
2023-03-10T17:24:31.293Z,1.02
2023-03-10T17:27:03.807Z,0.73
2023-03-10T17:29:33.445Z,1.05
2023-03-10T17:32:03.577Z,0.88
2023-03-10T17:34:35.161Z,1.08
2023-03-10T17:37:03.451Z,1.17
2023-03-10T17:39:33.706Z,1.33
2023-03-10T17:42:03.741Z,1.50
2023-03-10T17:44:32.354Z,1.10
2023-03-10T17:47:00.977Z,1.77
2023-03-10T17:49:30.404Z,1.60
2023-03-10T17:51:58.866Z,1.98
2023-03-10T17:54:27.730Z,1.30
2023-03-10T17:56:56.408Z,1.60
2023-03-10T17:59:24.736Z,1.20
2023-03-10T18:01:54.241Z,1.25
2023-03-10T18:04:23.194Z,1.45
2023-03-10T18:06:52.796Z,1.80
2023-03-10T18:09:21.286Z,3.15
2023-03-10T18:11:53.016Z,2.42
2023-03-10T18:14:22.562Z,2.15
2023-03-10T22:47:12.652Z,0.80
2023-03-10T22:49:42.661Z,0.95
2023-03-10T22:52:24.745Z,1.42
2023-03-10T22:54:52.980Z,0.90
2023-03-10T22:57:21.188Z,1.02
2023-03-10T22:59:55.644Z,1.38
2023-03-10T23:02:26.531Z,1.02
2023-03-10T23:04:57.132Z,1.10
2023-03-10T23:07:28.282Z,0.85
2023-03-10T23:09:59.264Z,0.80
2023-03-10T23:12:28.866Z,0.70
2023-03-10T23:14:58.144Z,1.17
2023-03-10T23:17:28.929Z,0.70
2023-03-10T23:19:59.286Z,0.90
2023-03-10T23:22:30.520Z,0.60
2023-03-10T23:24:59.558Z,0.50
2023-03-10T23:27:28.144Z,0.70
2023-03-10T23:29:56.412Z,0.80
2023-03-10T23:32:25.611Z,0.77
2023-03-10T23:34:57.184Z,0.60
2023-03-10T23:37:25.719Z,0.80
2023-03-10T23:39:54.144Z,0.50
2023-03-10T23:42:22.535Z,0.60
2023-03-10T23:44:51.908Z,0.70
2023-03-10T23:47:20.661Z,0.70
2023-03-10T23:49:49.198Z,0.93
2023-03-10T23:52:19.092Z,0.60
2023-03-10T23:54:47.824Z,0.60
2023-03-10T23:57:16.411Z,0.60
2023-03-10T23:59:47.405Z,0.80
